sensor_id;sensor_type;location;lat;lon;timestamp;P1;durP1;ratioP1;P2;durP2;ratioP2
59734;SDS011;64362;45.620;4.920;2023-05-07T00:00:32;2.95;;;1.85;;
59734;SDS011;64362;45.620;4.920;2023-05-07T00:02:59;3.40;;;2.28;;
59734;SDS011;64362;45.620;4.920;2023-05-07T00:05:24;2.88;;;2.05;;
59734;SDS011;64362;45.620;4.920;2023-05-07T00:07:50;2.28;;;1.80;;
59734;SDS011;64362;45.620;4.920;2023-05-07T00:10:17;3.28;;;2.10;;
59734;SDS011;64362;45.620;4.920;2023-05-07T00:12:43;2.92;;;2.00;;
59734;SDS011;64362;45.620;4.920;2023-05-07T00:15:09;2.92;;;1.90;;
59734;SDS011;64362;45.620;4.920;2023-05-07T00:17:35;2.80;;;1.80;;
59734;SDS011;64362;45.620;4.920;2023-05-07T00:20:00;3.85;;;2.13;;
59734;SDS011;64362;45.620;4.920;2023-05-07T00:22:26;2.65;;;1.75;;
59734;SDS011;64362;45.620;4.920;2023-05-07T00:24:52;3.45;;;2.10;;
59734;SDS011;64362;45.620;4.920;2023-05-07T00:27:17;3.33;;;2.33;;
59734;SDS011;64362;45.620;4.920;2023-05-07T00:29:43;2.70;;;1.92;;
59734;SDS011;64362;45.620;4.920;2023-05-07T00:32:08;3.22;;;2.35;;
59734;SDS011;64362;45.620;4.920;2023-05-07T00:34:34;2.50;;;1.83;;
59734;SDS011;64362;45.620;4.920;2023-05-07T00:37:00;2.97;;;1.60;;
59734;SDS011;64362;45.620;4.920;2023-05-07T00:39:26;3.13;;;1.90;;
59734;SDS011;64362;45.620;4.920;2023-05-07T00:41:52;2.53;;;2.20;;
59734;SDS011;64362;45.620;4.920;2023-05-07T00:44:17;2.08;;;1.50;;
59734;SDS011;64362;45.620;4.920;2023-05-07T00:46:43;3.17;;;1.90;;
59734;SDS011;64362;45.620;4.920;2023-05-07T00:49:09;2.60;;;1.77;;
59734;SDS011;64362;45.620;4.920;2023-05-07T00:51:35;2.58;;;1.98;;
59734;SDS011;64362;45.620;4.920;2023-05-07T00:54:02;3.05;;;2.22;;
59734;SDS011;64362;45.620;4.920;2023-05-07T00:56:27;2.65;;;1.70;;
59734;SDS011;64362;45.620;4.920;2023-05-07T00:58:53;3.40;;;1.80;;
59734;SDS011;64362;45.620;4.920;2023-05-07T01:01:19;2.33;;;1.70;;
59734;SDS011;64362;45.620;4.920;2023-05-07T01:03:45;3.08;;;1.95;;
59734;SDS011;64362;45.620;4.920;2023-05-07T01:06:10;2.75;;;1.73;;
59734;SDS011;64362;45.620;4.920;2023-05-07T01:08:38;2.60;;;1.50;;
59734;SDS011;64362;45.620;4.920;2023-05-07T01:11:05;3.00;;;2.00;;
59734;SDS011;64362;45.620;4.920;2023-05-07T01:13:31;2.97;;;2.00;;
59734;SDS011;64362;45.620;4.920;2023-05-07T01:15:57;2.80;;;1.67;;
59734;SDS011;64362;45.620;4.920;2023-05-07T01:18:23;2.83;;;1.80;;
59734;SDS011;64362;45.620;4.920;2023-05-07T01:20:48;4.85;;;1.83;;
59734;SDS011;64362;45.620;4.920;2023-05-07T01:23:14;2.13;;;1.63;;
59734;SDS011;64362;45.620;4.920;2023-05-07T01:25:40;2.17;;;1.77;;
59734;SDS011;64362;45.620;4.920;2023-05-07T01:28:07;3.35;;;1.52;;
59734;SDS011;64362;45.620;4.920;2023-05-07T01:30:35;4.20;;;1.88;;
59734;SDS011;64362;45.620;4.920;2023-05-07T01:33:08;3.08;;;1.80;;
59734;SDS011;64362;45.620;4.920;2023-05-07T01:35:40;2.20;;;1.80;;
59734;SDS011;64362;45.620;4.920;2023-05-07T01:38:07;2.90;;;1.80;;
59734;SDS011;64362;45.620;4.920;2023-05-07T01:40:33;3.70;;;1.55;;
59734;SDS011;64362;45.620;4.920;2023-05-07T01:43:00;3.03;;;1.85;;
59734;SDS011;64362;45.620;4.920;2023-05-07T01:45:27;2.63;;;1.80;;
59734;SDS011;64362;45.620;4.920;2023-05-07T01:47:52;3.92;;;1.90;;
59734;SDS011;64362;45.620;4.920;2023-05-07T01:50:18;3.90;;;1.92;;
59734;SDS011;64362;45.620;4.920;2023-05-07T01:52:44;3.88;;;1.65;;
59734;SDS011;64362;45.620;4.920;2023-05-07T01:55:10;2.88;;;1.90;;
59734;SDS011;64362;45.620;4.920;2023-05-07T01:57:36;1.70;;;1.50;;
59734;SDS011;64362;45.620;4.920;2023-05-07T02:00:02;2.70;;;1.42;;
59734;SDS011;64362;45.620;4.920;2023-05-07T02:02:40;2.95;;;1.73;;
59734;SDS011;64362;45.620;4.920;2023-05-07T02:05:08;2.58;;;1.90;;
59734;SDS011;64362;45.620;4.920;2023-05-07T02:07:33;4.15;;;2.03;;
59734;SDS011;64362;45.620;4.920;2023-05-07T02:09:59;2.72;;;1.63;;
59734;SDS011;64362;45.620;4.920;2023-05-07T02:12:25;2.40;;;1.83;;
59734;SDS011;64362;45.620;4.920;2023-05-07T02:14:51;4.03;;;1.77;;
59734;SDS011;64362;45.620;4.920;2023-05-07T02:17:16;1.90;;;1.52;;
59734;SDS011;64362;45.620;4.920;2023-05-07T02:19:42;3.00;;;2.13;;
59734;SDS011;64362;45.620;4.920;2023-05-07T02:22:09;3.67;;;1.67;;
59734;SDS011;64362;45.620;4.920;2023-05-07T02:24:35;3.22;;;1.60;;
59734;SDS011;64362;45.620;4.920;2023-05-07T02:27:01;2.45;;;1.73;;
59734;SDS011;64362;45.620;4.920;2023-05-07T02:29:27;2.53;;;1.90;;
59734;SDS011;64362;45.620;4.920;2023-05-07T02:31:53;2.05;;;1.70;;
59734;SDS011;64362;45.620;4.920;2023-05-07T02:34:18;3.33;;;1.60;;
59734;SDS011;64362;45.620;4.920;2023-05-07T02:36:44;2.20;;;1.55;;
59734;SDS011;64362;45.620;4.920;2023-05-07T02:39:13;2.60;;;1.85;;
59734;SDS011;64362;45.620;4.920;2023-05-07T02:41:39;3.90;;;1.90;;
59734;SDS011;64362;45.620;4.920;2023-05-07T02:44:05;3.08;;;1.90;;
59734;SDS011;64362;45.620;4.920;2023-05-07T02:46:31;2.33;;;1.55;;
59734;SDS011;64362;45.620;4.920;2023-05-07T02:49:04;2.30;;;1.50;;
59734;SDS011;64362;45.620;4.920;2023-05-07T02:51:29;1.98;;;1.70;;
59734;SDS011;64362;45.620;4.920;2023-05-07T02:53:58;3.20;;;1.90;;
59734;SDS011;64362;45.620;4.920;2023-05-07T02:56:25;2.35;;;1.60;;
59734;SDS011;64362;45.620;4.920;2023-05-07T02:58:51;2.67;;;1.80;;
59734;SDS011;64362;45.620;4.920;2023-05-07T03:01:20;2.47;;;1.80;;
59734;SDS011;64362;45.620;4.920;2023-05-07T03:04:06;2.65;;;1.52;;
59734;SDS011;64362;45.620;4.920;2023-05-07T03:06:32;2.55;;;1.73;;
59734;SDS011;64362;45.620;4.920;2023-05-07T03:08:57;3.83;;;1.70;;
59734;SDS011;64362;45.620;4.920;2023-05-07T03:11:23;2.13;;;1.50;;
59734;SDS011;64362;45.620;4.920;2023-05-07T03:13:48;2.40;;;1.65;;
59734;SDS011;64362;45.620;4.920;2023-05-07T03:16:16;3.15;;;1.67;;
59734;SDS011;64362;45.620;4.920;2023-05-07T03:18:41;2.88;;;1.60;;
59734;SDS011;64362;45.620;4.920;2023-05-07T03:21:07;2.05;;;1.63;;
59734;SDS011;64362;45.620;4.920;2023-05-07T03:23:32;2.47;;;1.80;;
59734;SDS011;64362;45.620;4.920;2023-05-07T03:25:57;2.63;;;1.70;;
59734;SDS011;64362;45.620;4.920;2023-05-07T03:28:23;2.80;;;1.70;;
59734;SDS011;64362;45.620;4.920;2023-05-07T03:30:54;3.63;;;1.80;;
59734;SDS011;64362;45.620;4.920;2023-05-07T03:33:19;2.13;;;1.50;;
59734;SDS011;64362;45.620;4.920;2023-05-07T03:35:45;2.05;;;1.65;;
59734;SDS011;64362;45.620;4.920;2023-05-07T03:38:13;1.90;;;1.40;;
59734;SDS011;64362;45.620;4.920;2023-05-07T03:40:39;2.20;;;1.42;;
59734;SDS011;64362;45.620;4.920;2023-05-07T03:43:05;3.33;;;1.88;;
59734;SDS011;64362;45.620;4.920;2023-05-07T03:45:33;3.78;;;1.40;;
59734;SDS011;64362;45.620;4.920;2023-05-07T03:48:08;3.60;;;1.50;;
59734;SDS011;64362;45.620;4.920;2023-05-07T03:50:33;2.17;;;1.80;;
59734;SDS011;64362;45.620;4.920;2023-05-07T03:52:59;2.47;;;1.70;;
59734;SDS011;64362;45.620;4.920;2023-05-07T03:55:25;2.00;;;1.58;;
59734;SDS011;64362;45.620;4.920;2023-05-07T03:57:56;2.88;;;1.63;;
59734;SDS011;64362;45.620;4.920;2023-05-07T04:00:23;3.53;;;1.50;;
59734;SDS011;64362;45.620;4.920;2023-05-07T04:02:49;2.03;;;1.50;;
59734;SDS011;64362;45.620;4.920;2023-05-07T04:05:21;2.17;;;1.38;;
59734;SDS011;64362;45.620;4.920;2023-05-07T04:07:50;3.45;;;2.08;;
59734;SDS011;64362;45.620;4.920;2023-05-07T04:10:20;2.75;;;1.70;;
59734;SDS011;64362;45.620;4.920;2023-05-07T04:12:47;2.40;;;1.52;;
59734;SDS011;64362;45.620;4.920;2023-05-07T04:15:17;2.15;;;1.50;;
59734;SDS011;64362;45.620;4.920;2023-05-07T04:17:43;2.60;;;1.50;;
59734;SDS011;64362;45.620;4.920;2023-05-07T04:20:13;2.38;;;1.88;;
59734;SDS011;64362;45.620;4.920;2023-05-07T04:22:40;2.03;;;1.50;;
59734;SDS011;64362;45.620;4.920;2023-05-07T04:25:06;2.53;;;1.58;;
59734;SDS011;64362;45.620;4.920;2023-05-07T04:27:34;2.97;;;1.85;;
59734;SDS011;64362;45.620;4.920;2023-05-07T04:30:01;2.58;;;1.52;;
59734;SDS011;64362;45.620;4.920;2023-05-07T04:32:30;2.70;;;1.63;;
59734;SDS011;64362;45.620;4.920;2023-05-07T04:34:55;3.13;;;1.80;;
59734;SDS011;64362;45.620;4.920;2023-05-07T04:37:21;2.15;;;1.40;;
59734;SDS011;64362;45.620;4.920;2023-05-07T04:39:48;2.97;;;1.75;;
59734;SDS011;64362;45.620;4.920;2023-05-07T04:42:17;2.38;;;1.67;;
59734;SDS011;64362;45.620;4.920;2023-05-07T04:44:46;2.25;;;1.58;;
59734;SDS011;64362;45.620;4.920;2023-05-07T04:47:12;3.17;;;1.90;;
59734;SDS011;64362;45.620;4.920;2023-05-07T04:49:38;2.05;;;1.50;;
59734;SDS011;64362;45.620;4.920;2023-05-07T04:52:04;2.15;;;1.48;;
59734;SDS011;64362;45.620;4.920;2023-05-07T04:54:30;2.30;;;1.60;;
59734;SDS011;64362;45.620;4.920;2023-05-07T04:56:56;2.67;;;1.70;;
59734;SDS011;64362;45.620;4.920;2023-05-07T04:59:22;2.45;;;1.50;;
59734;SDS011;64362;45.620;4.920;2023-05-07T05:01:49;2.17;;;1.73;;
59734;SDS011;64362;45.620;4.920;2023-05-07T05:04:14;3.65;;;1.63;;
59734;SDS011;64362;45.620;4.920;2023-05-07T05:06:40;2.42;;;1.42;;
59734;SDS011;64362;45.620;4.920;2023-05-07T05:09:06;4.75;;;1.70;;
59734;SDS011;64362;45.620;4.920;2023-05-07T05:11:33;2.70;;;1.80;;
59734;SDS011;64362;45.620;4.920;2023-05-07T05:13:59;2.97;;;1.88;;
59734;SDS011;64362;45.620;4.920;2023-05-07T05:16:25;3.92;;;1.90;;
59734;SDS011;64362;45.620;4.920;2023-05-07T05:18:51;3.40;;;1.55;;
59734;SDS011;64362;45.620;4.920;2023-05-07T05:21:19;4.38;;;1.90;;
59734;SDS011;64362;45.620;4.920;2023-05-07T05:23:48;4.22;;;1.83;;
59734;SDS011;64362;45.620;4.920;2023-05-07T05:26:17;4.88;;;1.65;;
59734;SDS011;64362;45.620;4.920;2023-05-07T05:28:42;4.18;;;2.00;;
59734;SDS011;64362;45.620;4.920;2023-05-07T05:31:08;4.15;;;2.20;;
59734;SDS011;64362;45.620;4.920;2023-05-07T05:33:35;4.68;;;2.40;;
59734;SDS011;64362;45.620;4.920;2023-05-07T05:36:03;11.07;;;7.05;;
59734;SDS011;64362;45.620;4.920;2023-05-07T05:40:15;18.45;;;12.63;;
59734;SDS011;64362;45.620;4.920;2023-05-07T05:42:41;13.75;;;10.60;;
59734;SDS011;64362;45.620;4.920;2023-05-07T05:45:08;13.43;;;9.90;;
59734;SDS011;64362;45.620;4.920;2023-05-07T05:47:34;13.13;;;8.52;;
59734;SDS011;64362;45.620;4.920;2023-05-07T05:50:00;11.07;;;7.95;;
59734;SDS011;64362;45.620;4.920;2023-05-07T05:52:25;12.10;;;7.65;;
59734;SDS011;64362;45.620;4.920;2023-05-07T05:54:51;11.20;;;6.90;;
59734;SDS011;64362;45.620;4.920;2023-05-07T05:57:16;12.48;;;6.43;;
59734;SDS011;64362;45.620;4.920;2023-05-07T05:59:43;10.50;;;5.72;;
59734;SDS011;64362;45.620;4.920;2023-05-07T06:02:09;8.48;;;5.43;;
59734;SDS011;64362;45.620;4.920;2023-05-07T06:04:35;7.45;;;3.92;;
59734;SDS011;64362;45.620;4.920;2023-05-07T06:07:01;6.07;;;3.35;;
59734;SDS011;64362;45.620;4.920;2023-05-07T06:09:27;8.35;;;3.53;;
59734;SDS011;64362;45.620;4.920;2023-05-07T06:11:52;8.10;;;3.72;;
59734;SDS011;64362;45.620;4.920;2023-05-07T06:14:18;9.00;;;3.70;;
59734;SDS011;64362;45.620;4.920;2023-05-07T06:16:43;8.82;;;3.58;;
59734;SDS011;64362;45.620;4.920;2023-05-07T06:19:09;6.05;;;3.17;;
59734;SDS011;64362;45.620;4.920;2023-05-07T06:21:36;7.45;;;2.97;;
59734;SDS011;64362;45.620;4.920;2023-05-07T06:24:01;7.60;;;3.00;;
59734;SDS011;64362;45.620;4.920;2023-05-07T06:26:27;6.72;;;2.90;;
59734;SDS011;64362;45.620;4.920;2023-05-07T06:28:53;8.32;;;2.95;;
59734;SDS011;64362;45.620;4.920;2023-05-07T06:31:19;7.55;;;2.70;;
59734;SDS011;64362;45.620;4.920;2023-05-07T06:33:55;5.00;;;2.83;;
59734;SDS011;64362;45.620;4.920;2023-05-07T06:36:23;5.72;;;2.58;;
59734;SDS011;64362;45.620;4.920;2023-05-07T06:38:49;9.52;;;2.92;;
59734;SDS011;64362;45.620;4.920;2023-05-07T06:41:14;6.10;;;2.70;;
59734;SDS011;64362;45.620;4.920;2023-05-07T06:43:41;5.50;;;2.33;;
59734;SDS011;64362;45.620;4.920;2023-05-07T06:46:23;5.10;;;2.38;;
59734;SDS011;64362;45.620;4.920;2023-05-07T06:48:48;4.45;;;2.15;;
59734;SDS011;64362;45.620;4.920;2023-05-07T06:51:14;5.28;;;2.28;;
59734;SDS011;64362;45.620;4.920;2023-05-07T06:53:39;5.57;;;2.30;;
59734;SDS011;64362;45.620;4.920;2023-05-07T06:56:08;3.55;;;1.92;;
59734;SDS011;64362;45.620;4.920;2023-05-07T06:58:35;4.72;;;2.03;;
59734;SDS011;64362;45.620;4.920;2023-05-07T07:01:01;6.75;;;2.08;;
59734;SDS011;64362;45.620;4.920;2023-05-07T07:03:27;3.78;;;1.90;;
59734;SDS011;64362;45.620;4.920;2023-05-07T07:05:54;2.95;;;1.77;;
59734;SDS011;64362;45.620;4.920;2023-05-07T07:08:20;4.47;;;1.77;;
59734;SDS011;64362;45.620;4.920;2023-05-07T07:10:46;3.15;;;1.63;;
59734;SDS011;64362;45.620;4.920;2023-05-07T07:13:12;3.33;;;1.80;;
59734;SDS011;64362;45.620;4.920;2023-05-07T07:15:38;5.63;;;2.03;;
59734;SDS011;64362;45.620;4.920;2023-05-07T07:18:04;4.10;;;1.90;;
59734;SDS011;64362;45.620;4.920;2023-05-07T07:20:30;5.00;;;2.28;;
59734;SDS011;64362;45.620;4.920;2023-05-07T07:22:55;3.35;;;1.67;;
59734;SDS011;64362;45.620;4.920;2023-05-07T07:25:21;3.95;;;1.95;;
59734;SDS011;64362;45.620;4.920;2023-05-07T07:27:47;3.28;;;1.90;;
59734;SDS011;64362;45.620;4.920;2023-05-07T07:30:14;3.85;;;1.80;;
59734;SDS011;64362;45.620;4.920;2023-05-07T07:32:42;2.95;;;1.95;;
59734;SDS011;64362;45.620;4.920;2023-05-07T07:35:08;4.78;;;1.60;;
59734;SDS011;64362;45.620;4.920;2023-05-07T07:37:34;2.30;;;1.65;;
59734;SDS011;64362;45.620;4.920;2023-05-07T07:40:00;2.72;;;1.40;;
59734;SDS011;64362;45.620;4.920;2023-05-07T07:42:26;4.32;;;1.70;;
59734;SDS011;64362;45.620;4.920;2023-05-07T07:44:52;3.72;;;1.60;;
59734;SDS011;64362;45.620;4.920;2023-05-07T07:47:20;3.30;;;1.48;;
59734;SDS011;64362;45.620;4.920;2023-05-07T07:49:47;3.05;;;1.42;;
59734;SDS011;64362;45.620;4.920;2023-05-07T07:52:13;2.60;;;1.48;;
59734;SDS011;64362;45.620;4.920;2023-05-07T07:54:39;3.15;;;1.40;;
59734;SDS011;64362;45.620;4.920;2023-05-07T07:57:06;3.38;;;1.67;;
59734;SDS011;64362;45.620;4.920;2023-05-07T07:59:32;3.60;;;1.55;;
59734;SDS011;64362;45.620;4.920;2023-05-07T08:01:58;8.88;;;1.95;;
59734;SDS011;64362;45.620;4.920;2023-05-07T08:04:26;7.57;;;1.98;;
59734;SDS011;64362;45.620;4.920;2023-05-07T08:06:54;13.05;;;2.83;;
59734;SDS011;64362;45.620;4.920;2023-05-07T08:09:20;9.98;;;2.78;;
59734;SDS011;64362;45.620;4.920;2023-05-07T08:11:46;8.93;;;2.35;;
59734;SDS011;64362;45.620;4.920;2023-05-07T08:14:12;6.03;;;2.20;;
59734;SDS011;64362;45.620;4.920;2023-05-07T08:16:38;18.70;;;3.08;;
59734;SDS011;64362;45.620;4.920;2023-05-07T08:19:03;10.65;;;2.08;;
59734;SDS011;64362;45.620;4.920;2023-05-07T08:21:29;6.70;;;2.22;;
59734;SDS011;64362;45.620;4.920;2023-05-07T08:23:56;12.48;;;2.97;;
59734;SDS011;64362;45.620;4.920;2023-05-07T08:26:22;6.47;;;1.85;;
59734;SDS011;64362;45.620;4.920;2023-05-07T08:28:47;9.25;;;2.03;;
59734;SDS011;64362;45.620;4.920;2023-05-07T08:31:13;6.45;;;1.90;;
59734;SDS011;64362;45.620;4.920;2023-05-07T08:33:40;4.38;;;1.70;;
59734;SDS011;64362;45.620;4.920;2023-05-07T08:36:06;6.05;;;2.22;;
59734;SDS011;64362;45.620;4.920;2023-05-07T08:38:32;2.10;;;1.40;;
59734;SDS011;64362;45.620;4.920;2023-05-07T08:40:58;2.00;;;1.13;;
59734;SDS011;64362;45.620;4.920;2023-05-07T08:43:25;2.45;;;1.55;;
59734;SDS011;64362;45.620;4.920;2023-05-07T08:45:53;3.45;;;1.50;;
59734;SDS011;64362;45.620;4.920;2023-05-07T08:48:22;2.10;;;1.38;;
59734;SDS011;64362;45.620;4.920;2023-05-07T08:50:57;2.00;;;1.37;;
59734;SDS011;64362;45.620;4.920;2023-05-07T08:53:23;4.82;;;1.50;;
59734;SDS011;64362;45.620;4.920;2023-05-07T08:55:49;4.55;;;1.10;;
59734;SDS011;64362;45.620;4.920;2023-05-07T08:58:15;3.85;;;1.65;;
59734;SDS011;64362;45.620;4.920;2023-05-07T09:00:42;7.00;;;2.10;;
59734;SDS011;64362;45.620;4.920;2023-05-07T09:03:07;4.90;;;1.50;;
59734;SDS011;64362;45.620;4.920;2023-05-07T09:05:34;5.28;;;1.85;;
59734;SDS011;64362;45.620;4.920;2023-05-07T09:08:02;7.47;;;1.75;;
59734;SDS011;64362;45.620;4.920;2023-05-07T09:10:29;4.82;;;1.38;;
59734;SDS011;64362;45.620;4.920;2023-05-07T09:12:54;3.03;;;1.13;;
59734;SDS011;64362;45.620;4.920;2023-05-07T09:15:20;2.70;;;0.98;;
59734;SDS011;64362;45.620;4.920;2023-05-07T09:17:46;4.13;;;1.10;;
59734;SDS011;64362;45.620;4.920;2023-05-07T09:20:12;3.88;;;1.15;;
59734;SDS011;64362;45.620;4.920;2023-05-07T09:22:39;1.33;;;0.85;;
59734;SDS011;64362;45.620;4.920;2023-05-07T09:25:08;4.05;;;1.35;;
59734;SDS011;64362;45.620;4.920;2023-05-07T09:27:35;3.85;;;1.05;;
59734;SDS011;64362;45.620;4.920;2023-05-07T09:30:08;2.88;;;1.13;;
59734;SDS011;64362;45.620;4.920;2023-05-07T09:32:36;234.52;;;117.70;;
59734;SDS011;64362;45.620;4.920;2023-05-07T09:35:16;185.98;;;94.30;;
59734;SDS011;64362;45.620;4.920;2023-05-07T09:37:42;151.45;;;71.13;;
59734;SDS011;64362;45.620;4.920;2023-05-07T09:40:08;116.72;;;55.38;;
59734;SDS011;64362;45.620;4.920;2023-05-07T09:42:49;108.22;;;52.80;;
59734;SDS011;64362;45.620;4.920;2023-05-07T09:45:22;98.22;;;49.38;;
59734;SDS011;64362;45.620;4.920;2023-05-07T09:47:49;97.03;;;47.72;;
59734;SDS011;64362;45.620;4.920;2023-05-07T09:50:15;82.75;;;42.38;;
59734;SDS011;64362;45.620;4.920;2023-05-07T09:52:41;77.55;;;37.40;;
59734;SDS011;64362;45.620;4.920;2023-05-07T09:55:08;71.60;;;34.13;;
59734;SDS011;64362;45.620;4.920;2023-05-07T09:57:35;65.45;;;33.90;;
59734;SDS011;64362;45.620;4.920;2023-05-07T10:00:04;65.88;;;31.38;;
59734;SDS011;64362;45.620;4.920;2023-05-07T10:02:46;54.15;;;26.10;;
59734;SDS011;64362;45.620;4.920;2023-05-07T10:05:14;43.08;;;21.88;;
59734;SDS011;64362;45.620;4.920;2023-05-07T10:07:41;40.70;;;19.98;;
59734;SDS011;64362;45.620;4.920;2023-05-07T10:10:08;35.28;;;17.25;;
59734;SDS011;64362;45.620;4.920;2023-05-07T10:12:38;26.63;;;15.13;;
59734;SDS011;64362;45.620;4.920;2023-05-07T10:15:15;30.45;;;15.50;;
59734;SDS011;64362;45.620;4.920;2023-05-07T10:17:45;29.85;;;12.85;;
59734;SDS011;64362;45.620;4.920;2023-05-07T10:20:11;21.92;;;11.70;;
59734;SDS011;64362;45.620;4.920;2023-05-07T10:22:43;22.27;;;11.20;;
59734;SDS011;64362;45.620;4.920;2023-05-07T10:27:46;18.02;;;9.48;;
59734;SDS011;64362;45.620;4.920;2023-05-07T10:33:06;19.80;;;8.35;;
59734;SDS011;64362;45.620;4.920;2023-05-07T10:35:38;16.92;;;8.70;;
59734;SDS011;64362;45.620;4.920;2023-05-07T10:38:06;22.48;;;8.30;;
59734;SDS011;64362;45.620;4.920;2023-05-07T10:40:34;15.55;;;7.43;;
59734;SDS011;64362;45.620;4.920;2023-05-07T10:43:04;16.50;;;7.18;;
59734;SDS011;64362;45.620;4.920;2023-05-07T10:45:36;18.35;;;6.90;;
59734;SDS011;64362;45.620;4.920;2023-05-07T10:50:37;13.23;;;6.10;;
59734;SDS011;64362;45.620;4.920;2023-05-07T10:55:46;16.27;;;6.53;;
59734;SDS011;64362;45.620;4.920;2023-05-07T10:58:22;13.70;;;5.85;;
59734;SDS011;64362;45.620;4.920;2023-05-07T11:01:03;13.27;;;5.25;;
59734;SDS011;64362;45.620;4.920;2023-05-07T11:03:37;10.63;;;4.97;;
59734;SDS011;64362;45.620;4.920;2023-05-07T11:06:38;12.27;;;4.65;;
59734;SDS011;64362;45.620;4.920;2023-05-07T11:09:07;15.68;;;5.22;;
59734;SDS011;64362;45.620;4.920;2023-05-07T11:17:16;15.05;;;4.55;;
59734;SDS011;64362;45.620;4.920;2023-05-07T11:19:57;10.95;;;3.88;;
59734;SDS011;64362;45.620;4.920;2023-05-07T11:22:37;12.35;;;4.85;;
59734;SDS011;64362;45.620;4.920;2023-05-07T11:25:17;13.25;;;4.88;;
59734;SDS011;64362;45.620;4.920;2023-05-07T11:27:44;14.93;;;5.18;;
59734;SDS011;64362;45.620;4.920;2023-05-07T11:30:10;13.55;;;4.50;;
59734;SDS011;64362;45.620;4.920;2023-05-07T11:32:41;13.57;;;4.05;;
59734;SDS011;64362;45.620;4.920;2023-05-07T11:35:07;14.02;;;5.03;;
59734;SDS011;64362;45.620;4.920;2023-05-07T11:37:33;12.02;;;4.22;;
59734;SDS011;64362;45.620;4.920;2023-05-07T11:40:05;8.98;;;3.90;;
59734;SDS011;64362;45.620;4.920;2023-05-07T11:42:32;12.10;;;4.00;;
59734;SDS011;64362;45.620;4.920;2023-05-07T11:44:59;18.40;;;3.70;;
59734;SDS011;64362;45.620;4.920;2023-05-07T11:47:25;12.38;;;3.70;;
59734;SDS011;64362;45.620;4.920;2023-05-07T11:49:52;10.65;;;4.38;;
59734;SDS011;64362;45.620;4.920;2023-05-07T11:52:18;11.88;;;3.85;;
59734;SDS011;64362;45.620;4.920;2023-05-07T11:54:51;9.18;;;3.95;;
59734;SDS011;64362;45.620;4.920;2023-05-07T11:57:18;11.98;;;3.55;;
59734;SDS011;64362;45.620;4.920;2023-05-07T11:59:43;15.73;;;4.13;;
59734;SDS011;64362;45.620;4.920;2023-05-07T12:02:16;13.05;;;3.60;;
59734;SDS011;64362;45.620;4.920;2023-05-07T12:04:42;11.73;;;3.15;;
59734;SDS011;64362;45.620;4.920;2023-05-07T12:07:11;9.60;;;3.50;;
59734;SDS011;64362;45.620;4.920;2023-05-07T12:09:38;1999.90;;;976.45;;
59734;SDS011;64362;45.620;4.920;2023-05-07T12:12:04;1054.80;;;707.20;;
59734;SDS011;64362;45.620;4.920;2023-05-07T12:14:30;830.67;;;573.80;;
59734;SDS011;64362;45.620;4.920;2023-05-07T12:16:56;724.05;;;510.42;;
59734;SDS011;64362;45.620;4.920;2023-05-07T12:19:22;667.35;;;458.92;;
59734;SDS011;64362;45.620;4.920;2023-05-07T12:21:47;607.30;;;401.73;;
59734;SDS011;64362;45.620;4.920;2023-05-07T12:24:16;567.00;;;364.70;;
59734;SDS011;64362;45.620;4.920;2023-05-07T12:26:43;525.08;;;329.67;;
59734;SDS011;64362;45.620;4.920;2023-05-07T12:29:08;506.02;;;314.60;;
59734;SDS011;64362;45.620;4.920;2023-05-07T12:31:34;486.88;;;308.75;;
59734;SDS011;64362;45.620;4.920;2023-05-07T12:33:59;466.58;;;297.48;;
59734;SDS011;64362;45.620;4.920;2023-05-07T12:36:25;445.30;;;281.65;;
59734;SDS011;64362;45.620;4.920;2023-05-07T12:38:51;423.98;;;267.35;;
59734;SDS011;64362;45.620;4.920;2023-05-07T12:41:16;384.35;;;245.23;;
59734;SDS011;64362;45.620;4.920;2023-05-07T12:43:43;383.23;;;242.27;;
59734;SDS011;64362;45.620;4.920;2023-05-07T12:46:09;371.77;;;233.90;;
59734;SDS011;64362;45.620;4.920;2023-05-07T12:48:38;333.90;;;215.88;;
59734;SDS011;64362;45.620;4.920;2023-05-07T12:51:08;333.45;;;199.48;;
59734;SDS011;64362;45.620;4.920;2023-05-07T12:53:39;294.15;;;184.55;;
59734;SDS011;64362;45.620;4.920;2023-05-07T12:56:07;310.67;;;194.38;;
59734;SDS011;64362;45.620;4.920;2023-05-07T12:58:33;287.98;;;179.43;;
59734;SDS011;64362;45.620;4.920;2023-05-07T13:00:59;282.77;;;177.50;;
59734;SDS011;64362;45.620;4.920;2023-05-07T13:03:27;261.90;;;162.82;;
59734;SDS011;64362;45.620;4.920;2023-05-07T13:05:54;237.70;;;138.27;;
59734;SDS011;64362;45.620;4.920;2023-05-07T13:08:25;202.30;;;124.43;;
59734;SDS011;64362;45.620;4.920;2023-05-07T13:10:54;171.90;;;101.90;;
59734;SDS011;64362;45.620;4.920;2023-05-07T13:13:20;150.77;;;90.43;;
59734;SDS011;64362;45.620;4.920;2023-05-07T13:15:46;126.05;;;75.15;;
59734;SDS011;64362;45.620;4.920;2023-05-07T13:18:12;118.00;;;71.32;;
59734;SDS011;64362;45.620;4.920;2023-05-07T13:20:38;101.93;;;57.88;;
59734;SDS011;64362;45.620;4.920;2023-05-07T13:23:03;88.78;;;50.10;;
59734;SDS011;64362;45.620;4.920;2023-05-07T13:25:29;65.88;;;40.30;;
59734;SDS011;64362;45.620;4.920;2023-05-07T13:27:59;52.38;;;32.72;;
59734;SDS011;64362;45.620;4.920;2023-05-07T13:30:24;53.15;;;32.20;;
59734;SDS011;64362;45.620;4.920;2023-05-07T13:32:50;51.42;;;30.52;;
59734;SDS011;64362;45.620;4.920;2023-05-07T13:35:17;46.03;;;28.10;;
59734;SDS011;64362;45.620;4.920;2023-05-07T13:37:42;30.52;;;19.20;;
59734;SDS011;64362;45.620;4.920;2023-05-07T13:40:08;30.70;;;17.00;;
59734;SDS011;64362;45.620;4.920;2023-05-07T13:42:34;24.70;;;15.18;;
59734;SDS011;64362;45.620;4.920;2023-05-07T13:45:00;23.98;;;13.15;;
59734;SDS011;64362;45.620;4.920;2023-05-07T13:47:25;18.67;;;11.00;;
59734;SDS011;64362;45.620;4.920;2023-05-07T13:49:51;20.70;;;11.95;;
59734;SDS011;64362;45.620;4.920;2023-05-07T13:52:17;23.42;;;13.73;;
59734;SDS011;64362;45.620;4.920;2023-05-07T13:54:42;22.98;;;12.57;;
59734;SDS011;64362;45.620;4.920;2023-05-07T13:57:08;22.42;;;13.43;;
59734;SDS011;64362;45.620;4.920;2023-05-07T13:59:33;28.75;;;17.58;;
59734;SDS011;64362;45.620;4.920;2023-05-07T14:01:59;34.10;;;18.75;;
59734;SDS011;64362;45.620;4.920;2023-05-07T14:04:25;39.33;;;19.98;;
59734;SDS011;64362;45.620;4.920;2023-05-07T14:06:50;40.92;;;22.25;;
59734;SDS011;64362;45.620;4.920;2023-05-07T14:09:16;38.38;;;22.00;;
59734;SDS011;64362;45.620;4.920;2023-05-07T14:11:41;37.47;;;21.00;;
59734;SDS011;64362;45.620;4.920;2023-05-07T14:14:07;38.00;;;22.85;;
59734;SDS011;64362;45.620;4.920;2023-05-07T14:16:35;38.55;;;22.40;;
59734;SDS011;64362;45.620;4.920;2023-05-07T14:19:01;37.33;;;21.33;;
59734;SDS011;64362;45.620;4.920;2023-05-07T14:21:27;33.63;;;20.08;;
59734;SDS011;64362;45.620;4.920;2023-05-07T14:23:52;32.25;;;19.27;;
59734;SDS011;64362;45.620;4.920;2023-05-07T14:26:17;31.08;;;17.98;;
59734;SDS011;64362;45.620;4.920;2023-05-07T14:28:44;36.13;;;18.02;;
59734;SDS011;64362;45.620;4.920;2023-05-07T14:31:11;31.88;;;17.20;;
59734;SDS011;64362;45.620;4.920;2023-05-07T14:33:37;31.08;;;16.85;;
59734;SDS011;64362;45.620;4.920;2023-05-07T14:36:02;37.33;;;16.65;;
59734;SDS011;64362;45.620;4.920;2023-05-07T14:38:28;28.33;;;15.02;;
59734;SDS011;64362;45.620;4.920;2023-05-07T14:40:55;31.33;;;15.15;;
59734;SDS011;64362;45.620;4.920;2023-05-07T14:43:21;31.85;;;15.77;;
59734;SDS011;64362;45.620;4.920;2023-05-07T14:45:48;26.00;;;15.65;;
59734;SDS011;64362;45.620;4.920;2023-05-07T14:48:15;28.17;;;14.98;;
59734;SDS011;64362;45.620;4.920;2023-05-07T14:50:43;26.17;;;13.63;;
59734;SDS011;64362;45.620;4.920;2023-05-07T14:53:08;27.13;;;13.60;;